Time;durP1;ratioP1;P1;durP2;ratioP2;P2;SDS_P1;SDS_P2;PMS_P1;PMS_P2;Temp;Humidity;BMP_temperature;BMP_pressure;BME280_temperature;BME280_humidity;BME280_pressure;Samples;Min_cycle;Max_cycle;Signal;HPM_P1;HPM_P2
2021/01/01 00:01:34;;;;;;;28.33;12.45;;;;;;;24.43;16.97;97353.06;5107592;28;20044;-82
2021/01/01 00:04:00;;;;;;;25.25;9.45;;;;;;;24.86;16.48;97350.34;5087733;28;20070;-82
2021/01/01 00:06:27;;;;;;;26.23;10.77;;;;;;;25.22;16.07;97358.22;5099735;28;20540;-82
2021/01/01 00:08:53;;;;;;;23.55;10.27;;;;;;;25.39;15.66;97357.53;5096845;28;20085;-82
2021/01/01 00:11:19;;;;;;;29.45;11.40;;;;;;;25.62;15.51;97353.50;5098507;28;20130;-82
2021/01/01 00:13:45;;;;;;;25.42;9.13;;;;;;;25.95;15.37;97359.38;5095580;28;20055;-82
2021/01/01 00:16:13;;;;;;;19.90;8.98;;;;;;;26.26;14.84;97348.06;5093398;28;20032;-82
2021/01/01 00:18:40;;;;;;;21.73;8.38;;;;;;;25.89;15.49;97355.59;5095328;28;20510;-82
2021/01/01 00:21:06;;;;;;;29.30;11.43;;;;;;;25.35;16.02;97362.53;5097414;28;20027;-82
2021/01/01 00:23:32;;;;;;;25.27;10.25;;;;;;;24.91;16.13;97363.00;5091973;28;20490;-82
2021/01/01 00:25:58;;;;;;;25.42;10.18;;;;;;;24.48;16.80;97358.13;5085768;28;20402;-81
2021/01/01 00:28:25;;;;;;;23.45;9.98;;;;;;;23.73;17.59;97354.19;5098522;28;20028;-82
2021/01/01 00:30:52;;;;;;;28.00;12.27;;;;;;;23.40;17.97;97361.22;5100257;28;20040;-82
2021/01/01 00:33:19;;;;;;;29.42;13.80;;;;;;;24.18;17.13;97355.97;5104385;28;20032;-82
2021/01/01 00:35:45;;;;;;;21.55;9.35;;;;;;;24.80;16.39;97363.41;5112072;28;20028;-82
2021/01/01 00:38:12;;;;;;;29.90;11.48;;;;;;;25.27;15.85;97357.66;5112640;28;20024;-82
2021/01/01 00:40:38;;;;;;;27.15;11.40;;;;;;;25.50;16.06;97359.97;5093468;28;20031;-82
2021/01/01 00:43:04;;;;;;;24.90;10.80;;;;;;;25.52;15.78;97360.31;5099814;28;20047;-81
2021/01/01 00:45:30;;;;;;;36.65;13.65;;;;;;;25.45;15.73;97363.38;5091134;28;20032;-82
2021/01/01 00:47:56;;;;;;;36.80;14.15;;;;;;;25.58;15.67;97360.50;5098588;28;20217;-82
2021/01/01 00:50:22;;;;;;;21.50;8.75;;;;;;;25.68;15.51;97364.88;5098031;28;20572;-82
2021/01/01 00:52:48;;;;;;;26.13;9.05;;;;;;;25.86;15.52;97359.34;5097176;28;20092;-81
2021/01/01 00:55:14;;;;;;;16.30;7.38;;;;;;;25.88;15.40;97363.25;5098941;28;20040;-82
2021/01/01 00:57:40;;;;;;;20.85;8.73;;;;;;;25.83;15.43;97374.34;5096489;28;20396;-82
2021/01/01 01:00:07;;;;;;;22.55;9.82;;;;;;;25.72;15.42;97371.94;5096574;28;20032;-82
2021/01/01 01:02:34;;;;;;;21.20;9.18;;;;;;;25.54;15.55;97371.88;5097567;28;20043;-82
2021/01/01 01:05:00;;;;;;;19.48;8.52;;;;;;;25.75;15.20;97370.22;5094073;28;20035;-82
2021/01/01 01:07:26;;;;;;;39.90;17.77;;;;;;;25.89;15.32;97364.03;5096554;28;20039;-82
2021/01/01 01:09:52;;;;;;;29.27;13.20;;;;;;;26.08;15.08;97372.09;5091180;28;20149;-82
2021/01/01 01:12:19;;;;;;;25.73;10.57;;;;;;;25.61;15.33;97377.22;5095907;28;20400;-82
2021/01/01 01:14:45;;;;;;;22.75;9.68;;;;;;;25.26;15.87;97379.34;5092245;28;20488;-82
2021/01/01 01:17:11;;;;;;;27.27;10.55;;;;;;;25.18;15.86;97366.78;5092550;28;20032;-82
2021/01/01 01:19:37;;;;;;;26.55;11.25;;;;;;;25.17;15.86;97370.84;5091353;28;20044;-82
2021/01/01 01:22:04;;;;;;;34.47;13.52;;;;;;;24.05;16.81;97373.56;5097958;28;20112;-82
2021/01/01 01:24:30;;;;;;;23.00;8.57;;;;;;;24.01;17.24;97370.06;5098131;28;20028;-82
2021/01/01 01:26:56;;;;;;;20.52;7.95;;;;;;;24.22;17.02;97367.84;5099476;28;20113;-82
2021/01/01 01:29:22;;;;;;;36.88;14.45;;;;;;;22.49;18.26;97361.81;5099514;28;20058;-82
2021/01/01 01:31:48;;;;;;;22.58;10.60;;;;;;;23.23;17.77;97368.13;5102302;28;20036;-82
2021/01/01 01:34:14;;;;;;;30.98;10.52;;;;;;;23.52;17.69;97373.69;5098524;28;20044;-82
2021/01/01 01:36:40;;;;;;;28.92;11.23;;;;;;;23.11;17.90;97369.66;5095462;28;20055;-82
2021/01/01 01:39:06;;;;;;;22.10;8.13;;;;;;;23.53;17.47;97369.63;5099877;28;20117;-82
2021/01/01 01:41:32;;;;;;;22.08;9.50;;;;;;;23.91;17.03;97376.03;5098601;28;20040;-82
2021/01/01 01:43:58;;;;;;;21.38;8.73;;;;;;;24.46;16.64;97374.59;5102875;28;20387;-82
2021/01/01 01:46:42;;;;;;;22.90;9.27;;;;;;;24.74;16.29;97380.00;5097371;28;20059;-82
2021/01/01 01:49:12;;;;;;;22.75;8.70;;;;;;;24.98;16.15;97377.56;5095158;28;20024;-82
2021/01/01 01:51:41;;;;;;;18.60;7.95;;;;;;;25.26;15.87;97384.94;5099477;28;20051;-82
2021/01/01 01:54:07;;;;;;;18.25;7.82;;;;;;;25.77;15.32;97388.22;5094682;28;20039;-82
2021/01/01 01:56:34;;;;;;;19.63;8.25;;;;;;;25.94;15.07;97394.38;5100258;28;20593;-82
2021/01/01 01:59:01;;;;;;;19.73;9.10;;;;;;;25.70;15.41;97384.91;5095550;28;20032;-82
2021/01/01 02:01:28;;;;;;;23.80;9.15;;;;;;;25.25;15.59;97382.63;5102363;28;20036;-82
2021/01/01 02:03:57;;;;;;;20.73;8.65;;;;;;;24.54;16.26;97385.16;5096047;28;20032;-82
2021/01/01 02:06:23;;;;;;;28.33;10.05;;;;;;;23.85;16.93;97387.03;5102790;27;20036;-82
2021/01/01 02:08:53;;;;;;;26.50;11.10;;;;;;;22.96;17.93;97382.53;5098739;28;20032;-82
2021/01/01 02:11:20;;;;;;;32.22;12.38;;;;;;;22.35;18.50;97388.16;5102697;28;20028;-82
2021/01/01 02:13:54;;;;;;;17.65;8.50;;;;;;;23.11;17.84;97380.88;5100668;28;20056;-82
2021/01/01 02:16:22;;;;;;;20.17;8.15;;;;;;;23.67;17.39;97380.41;5096715;28;20126;-82
2021/01/01 02:18:48;;;;;;;15.75;6.55;;;;;;;24.02;16.91;97374.44;5099273;28;20020;-82
2021/01/01 02:21:16;;;;;;;22.23;8.45;;;;;;;23.70;17.05;97369.09;5099068;28;20084;-82
2021/01/01 02:23:43;;;;;;;26.27;10.35;;;;;;;24.23;16.84;97370.19;5086904;28;20057;-82
2021/01/01 02:26:10;;;;;;;19.55;7.78;;;;;;;24.64;16.10;97371.97;5082721;28;20036;-82
2021/01/01 02:28:36;;;;;;;15.95;7.55;;;;;;;24.84;16.23;97366.84;5096607;28;20556;-82
2021/01/01 02:31:03;;;;;;;29.30;10.88;;;;;;;24.89;16.04;97366.28;5096239;28;20024;-82
2021/01/01 02:33:29;;;;;;;21.95;10.05;;;;;;;24.88;15.97;97373.13;5102916;28;20073;-82
2021/01/01 02:35:55;;;;;;;22.30;9.25;;;;;;;24.67;16.33;97373.84;5098100;28;20036;-82
2021/01/01 02:38:21;;;;;;;19.20;6.72;;;;;;;24.40;16.38;97370.81;5099519;28;20035;-82
2021/01/01 02:40:47;;;;;;;19.27;8.40;;;;;;;24.71;16.13;97366.88;5096482;28;20035;-82
2021/01/01 02:43:13;;;;;;;22.27;8.02;;;;;;;24.62;15.90;97366.03;5097260;28;20445;-82
2021/01/01 02:45:39;;;;;;;21.27;9.23;;;;;;;24.28;16.51;97366.00;5101232;28;20056;-82
2021/01/01 02:48:11;;;;;;;20.48;8.77;;;;;;;24.63;16.18;97368.38;5096832;28;20020;-82
2021/01/01 02:50:38;;;;;;;21.38;8.20;;;;;;;24.99;15.65;97364.31;5094121;28;20549;-82
2021/01/01 02:53:04;;;;;;;33.05;14.30;;;;;;;23.50;17.14;97367.75;5098513;28;20027;-82
2021/01/01 02:55:31;;;;;;;14.88;7.05;;;;;;;23.60;17.21;97361.00;5111183;28;20027;-82
2021/01/01 02:57:59;;;;;;;20.08;7.60;;;;;;;24.30;16.68;97363.53;5107586;28;20058;-82
2021/01/01 03:00:25;;;;;;;21.40;8.98;;;;;;;24.96;16.11;97363.22;5101104;28;20531;-82
2021/01/01 03:02:52;;;;;;;21.75;9.20;;;;;;;24.27;16.55;97361.66;5108925;28;20039;-82
2021/01/01 03:05:18;;;;;;;21.23;9.45;;;;;;;24.83;16.14;97365.31;5094683;28;20044;-82
2021/01/01 03:07:44;;;;;;;17.95;7.30;;;;;;;25.05;15.75;97366.09;5102035;28;20024;-82
2021/01/01 03:10:10;;;;;;;21.38;9.18;;;;;;;24.59;16.33;97361.31;5098333;28;20100;-82
2021/01/01 03:12:36;;;;;;;24.25;10.15;;;;;;;23.64;17.08;97364.50;5095726;28;20495;-82
2021/01/01 03:15:04;;;;;;;20.88;8.07;;;;;;;23.97;16.91;97368.63;5103382;28;20028;-82
2021/01/01 03:17:30;;;;;;;24.95;9.20;;;;;;;24.20;16.63;97365.47;5103327;28;20024;-82
2021/01/01 03:19:56;;;;;;;22.48;9.35;;;;;;;23.93;16.73;97359.53;5093045;28;20036;-82
2021/01/01 03:22:22;;;;;;;17.70;7.40;;;;;;;23.73;17.11;97365.41;5096020;28;20054;-81
2021/01/01 03:24:48;;;;;;;30.33;10.63;;;;;;;23.89;16.75;97361.69;5096183;28;20028;-82
2021/01/01 03:27:14;;;;;;;22.40;9.23;;;;;;;23.37;17.22;97359.31;5093422;28;20460;-81
2021/01/01 03:29:40;;;;;;;16.25;7.15;;;;;;;23.56;17.09;97360.34;5099260;28;20028;-82
2021/01/01 03:32:07;;;;;;;21.50;9.25;;;;;;;23.97;16.66;97363.00;5097788;28;20114;-82
2021/01/01 03:34:33;;;;;;;18.95;6.85;;;;;;;24.60;16.18;97374.91;5092509;28;20035;-81
2021/01/01 03:36:59;;;;;;;19.58;8.60;;;;;;;24.67;15.92;97369.03;5099209;28;20038;-82
2021/01/01 03:39:25;;;;;;;19.70;7.70;;;;;;;24.98;15.60;97379.59;5093921;28;20245;-82
2021/01/01 03:41:51;;;;;;;21.02;8.70;;;;;;;25.40;15.00;97378.00;5097790;28;20036;-82
2021/01/01 03:44:17;;;;;;;19.35;8.68;;;;;;;25.24;15.47;97376.19;5093992;28;20032;-81
2021/01/01 03:46:43;;;;;;;21.00;9.10;;;;;;;25.00;15.52;97375.09;5098524;28;20046;-82
2021/01/01 03:49:09;;;;;;;20.38;9.43;;;;;;;24.90;15.77;97381.88;5097689;28;20117;-82
2021/01/01 03:51:35;;;;;;;18.65;8.32;;;;;;;24.86;15.54;97378.41;5094720;28;20059;-82
2021/01/01 03:54:01;;;;;;;17.95;8.30;;;;;;;24.58;15.96;97374.56;5093701;28;20042;-82
2021/01/01 03:56:27;;;;;;;20.92;10.00;;;;;;;24.68;15.93;97384.66;5093922;28;20039;-81
2021/01/01 03:58:53;;;;;;;20.40;8.90;;;;;;;25.29;15.32;97381.22;5095647;28;20032;-82
2021/01/01 04:01:19;;;;;;;15.93;7.68;;;;;;;25.58;14.98;97380.94;5100475;28;20093;-82
2021/01/01 04:03:45;;;;;;;20.75;8.80;;;;;;;25.95;14.58;97384.72;5095488;28;20035;-82
2021/01/01 04:06:11;;;;;;;17.58;7.88;;;;;;;26.17;14.34;97370.56;5096311;28;20453;-82
2021/01/01 04:08:37;;;;;;;18.88;9.40;;;;;;;26.05;14.69;97372.22;5096101;28;20027;-81
2021/01/01 04:11:03;;;;;;;21.05;10.13;;;;;;;26.06;14.76;97368.97;5093823;28;20480;-81
2021/01/01 04:13:30;;;;;;;21.70;9.35;;;;;;;26.05;14.66;97375.03;5094884;28;20043;-81
2021/01/01 04:15:56;;;;;;;24.25;9.23;;;;;;;25.66;15.08;97378.63;5096097;28;20111;-81
2021/01/01 04:18:22;;;;;;;19.02;7.90;;;;;;;25.67;15.00;97375.34;5096465;28;20044;-82
2021/01/01 04:20:49;;;;;;;15.40;6.35;;;;;;;25.94;14.68;97364.22;5098666;28;20093;-81
2021/01/01 04:23:15;;;;;;;27.55;10.45;;;;;;;25.64;14.73;97370.66;5099209;28;20486;-81
2021/01/01 04:25:41;;;;;;;16.60;7.05;;;;;;;25.59;14.86;97374.09;5093586;28;21799;-81
2021/01/01 04:28:07;;;;;;;21.15;9.07;;;;;;;25.36;14.94;97372.53;5097223;28;20038;-81
2021/01/01 04:30:33;;;;;;;21.27;9.10;;;;;;;25.03;15.28;97368.56;5096142;28;20032;-81
2021/01/01 04:32:59;;;;;;;17.15;7.07;;;;;;;24.77;15.86;97369.13;5092762;28;20036;-81
2021/01/01 04:35:25;;;;;;;20.35;8.82;;;;;;;24.46;16.09;97358.56;5099853;28;20024;-82
2021/01/01 04:37:51;;;;;;;21.15;8.73;;;;;;;24.67;15.82;97371.84;5091262;28;20028;-81
2021/01/01 04:40:17;;;;;;;13.80;6.13;;;;;;;24.82;15.73;97372.16;5097333;28;20029;-82
2021/01/01 04:42:43;;;;;;;20.52;9.20;;;;;;;24.97;15.64;97375.25;5097701;28;20126;-81
2021/01/01 04:45:10;;;;;;;20.67;8.60;;;;;;;25.15;15.51;97373.34;5096662;28;20039;-81
2021/01/01 04:47:37;;;;;;;22.08;9.88;;;;;;;24.90;15.64;97376.25;5094846;28;20518;-82
2021/01/01 04:50:04;;;;;;;24.40;10.40;;;;;;;24.67;15.82;97385.88;5093071;28;20031;-82
2021/01/01 04:52:31;;;;;;;20.15;9.98;;;;;;;24.70;15.72;97382.16;5093189;28;20036;-81
2021/01/01 04:55:02;;;;;;;18.27;8.38;;;;;;;24.93;15.50;97383.78;5093850;28;20054;-82
2021/01/01 04:57:29;;;;;;;22.80;9.45;;;;;;;24.88;15.49;97383.59;5098654;28;20651;-82
2021/01/01 04:59:55;;;;;;;14.23;7.38;;;;;;;25.20;15.06;97386.00;5111693;28;20035;-82
2021/01/01 05:02:22;;;;;;;15.43;6.97;;;;;;;25.52;14.82;97388.41;5094898;28;20058;-81
2021/01/01 05:04:49;;;;;;;18.75;7.88;;;;;;;25.45;14.92;97390.69;5095534;28;20084;-82
2021/01/01 05:07:19;;;;;;;17.20;7.10;;;;;;;25.81;14.55;97396.53;5102384;28;20440;-81
2021/01/01 05:09:47;;;;;;;16.33;8.40;;;;;;;26.12;14.49;97394.47;5103593;28;20024;-81
2021/01/01 05:12:14;;;;;;;18.83;9.10;;;;;;;26.32;14.13;97389.22;5101924;28;20069;-81
2021/01/01 05:14:42;;;;;;;19.15;8.45;;;;;;;26.14;14.48;97402.47;5094910;28;20028;-81
2021/01/01 05:17:08;;;;;;;20.50;10.15;;;;;;;26.06;14.70;97407.56;5102004;28;20040;-81
2021/01/01 05:19:40;;;;;;;17.50;8.25;;;;;;;26.03;14.55;97409.25;5097614;27;20032;-81
2021/01/01 05:22:08;;;;;;;21.17;9.70;;;;;;;25.95;14.43;97413.59;5097701;28;20044;-81
2021/01/01 05:24:38;;;;;;;14.52;6.43;;;;;;;26.17;14.36;97409.94;5096553;28;20035;-82
2021/01/01 05:27:11;;;;;;;16.50;7.43;;;;;;;26.22;14.37;97410.13;5098380;28;20055;-81
2021/01/01 05:29:53;;;;;;;17.75;8.55;;;;;;;26.18;14.13;97409.50;5101769;28;20031;-81
2021/01/01 05:32:23;;;;;;;16.10;6.72;;;;;;;26.40;14.10;97412.19;5094570;28;20024;-81
2021/01/01 05:34:49;;;;;;;19.40;9.02;;;;;;;26.23;14.10;97416.56;5103716;28;20110;-81
2021/01/01 05:37:28;;;;;;;18.40;8.02;;;;;;;26.20;14.24;97417.47;5098426;28;20036;-81
2021/01/01 05:40:10;;;;;;;13.35;5.47;;;;;;;26.40;13.82;97415.81;5100496;28;20085;-82
2021/01/01 05:42:38;;;;;;;18.75;8.30;;;;;;;26.40;13.82;97413.00;5103882;28;20042;-82
2021/01/01 05:45:20;;;;;;;19.17;8.23;;;;;;;26.14;14.27;97431.34;5107691;28;20036;-82
2021/01/01 05:48:07;;;;;;;16.25;8.32;;;;;;;26.20;14.18;97426.72;5097108;27;20028;-82
2021/01/01 05:50:34;;;;;;;16.45;7.20;;;;;;;26.39;14.08;97425.50;5096108;28;20028;-82
2021/01/01 05:53:17;;;;;;;16.00;6.25;;;;;;;26.45;13.92;97434.13;5099992;28;20070;-82
2021/01/01 05:55:44;;;;;;;15.32;7.75;;;;;;;26.07;14.52;97431.63;5098984;28;20020;-82
2021/01/01 05:58:23;;;;;;;17.23;7.03;;;;;;;25.98;14.44;97437.22;5102816;28;20114;-82
2021/01/01 06:00:53;;;;;;;20.67;8.65;;;;;;;26.21;14.37;97433.13;5104530;28;20032;-82
2021/01/01 06:03:35;;;;;;;17.38;8.18;;;;;;;26.12;14.12;97433.84;5107829;28;20039;-82
2021/01/01 06:06:04;;;;;;;18.63;8.50;;;;;;;26.33;13.83;97432.19;5100818;28;20509;-82
2021/01/01 06:08:31;;;;;;;18.70;8.95;;;;;;;26.11;14.12;97443.56;5098023;28;20487;-82
2021/01/01 06:11:01;;;;;;;18.92;8.77;;;;;;;26.02;14.20;97446.31;5083762;28;20513;-82
2021/01/01 06:13:32;;;;;;;13.68;6.65;;;;;;;26.29;14.10;97456.91;5096474;28;20048;-82
2021/01/01 06:16:00;;;;;;;17.55;8.20;;;;;;;26.29;13.88;97454.88;5112303;28;20027;-82
2021/01/01 06:18:32;;;;;;;18.25;8.52;;;;;;;26.22;14.10;97448.75;5087748;28;20052;-82
2021/01/01 06:21:08;;;;;;;18.33;8.35;;;;;;;26.20;14.31;97446.41;5102376;28;20028;-82
2021/01/01 06:23:39;;;;;;;18.52;7.40;;;;;;;26.42;13.83;97440.69;5095683;28;20036;-82
2021/01/01 06:26:07;;;;;;;15.30;6.93;;;;;;;26.61;13.69;97442.28;5099425;28;20028;-82
2021/01/01 06:28:35;;;;;;;15.20;7.22;;;;;;;26.48;13.78;97438.81;5095554;28;20040;-82
2021/01/01 06:31:02;;;;;;;18.30;8.18;;;;;;;26.61;13.97;97451.50;5096938;28;20423;-82
2021/01/01 06:33:28;;;;;;;19.88;7.53;;;;;;;26.70;13.68;97443.06;5097245;28;20036;-82
2021/01/01 06:35:55;;;;;;;20.85;9.10;;;;;;;26.30;14.01;97447.22;5103838;28;20032;-82
2021/01/01 06:38:36;;;;;;;19.98;8.93;;;;;;;25.67;14.48;97454.06;5099728;28;20036;-82
2021/01/01 06:41:13;;;;;;;21.38;8.90;;;;;;;25.46;14.84;97440.06;5094685;28;20025;-82
2021/01/01 06:43:54;;;;;;;18.33;8.18;;;;;;;24.81;15.29;97446.38;5095235;28;20067;-82
2021/01/01 06:46:34;;;;;;;11.32;5.57;;;;;;;24.87;15.35;97449.41;5098854;28;20057;-82
2021/01/01 06:49:02;;;;;;;13.32;6.35;;;;;;;25.15;14.76;97454.03;5097992;28;20080;-81
2021/01/01 06:51:30;;;;;;;19.67;8.98;;;;;;;24.98;15.07;97450.59;5097458;28;20036;-82
2021/01/01 06:54:13;;;;;;;15.57;6.13;;;;;;;24.66;15.49;97451.69;5100003;28;20472;-82
2021/01/01 06:56:43;;;;;;;14.68;6.53;;;;;;;24.00;15.94;97468.69;5098626;28;20017;-82
2021/01/01 06:59:16;;;;;;;16.60;6.93;;;;;;;24.26;16.00;97461.06;5107611;28;20031;-82
2021/01/01 07:01:45;;;;;;;20.88;8.02;;;;;;;24.42;15.64;97455.31;5112794;28;20497;-82
2021/01/01 07:04:12;;;;;;;18.63;6.60;;;;;;;25.07;15.00;97461.13;5114114;28;20056;-82
2021/01/01 07:06:40;;;;;;;17.42;6.53;;;;;;;25.58;14.75;97465.28;5094510;28;20059;-81
2021/01/01 07:09:10;;;;;;;14.45;6.13;;;;;;;25.99;14.35;97472.53;5105019;28;20114;-82
2021/01/01 07:11:38;;;;;;;19.47;9.07;;;;;;;26.32;13.89;97467.25;5112435;28;20028;-82
2021/01/01 07:14:10;;;;;;;12.65;5.40;;;;;;;25.97;14.20;97464.56;5113567;28;20035;-82
2021/01/01 07:16:41;;;;;;;12.55;5.57;;;;;;;25.97;14.21;97458.94;5114311;28;20055;-82
2021/01/01 07:19:08;;;;;;;11.95;5.97;;;;;;;25.78;14.63;97460.09;5105650;28;20069;-81
2021/01/01 07:21:35;;;;;;;17.25;6.93;;;;;;;25.14;15.04;97461.66;5094484;28;20039;-81
2021/01/01 07:24:02;;;;;;;16.70;7.47;;;;;;;25.45;14.97;97463.78;5094102;28;20032;-81
2021/01/01 07:26:30;;;;;;;17.30;7.95;;;;;;;24.87;15.25;97469.84;5095556;28;20479;-82
2021/01/01 07:28:59;;;;;;;12.95;5.65;;;;;;;24.62;15.77;97465.03;5094707;28;20032;-82
2021/01/01 07:31:25;;;;;;;12.70;5.68;;;;;;;24.92;15.39;97460.06;5105562;28;20471;-82
2021/01/01 07:33:52;;;;;;;22.25;8.20;;;;;;;25.29;15.16;97461.94;5112907;28;20047;-82
2021/01/01 07:36:18;;;;;;;17.98;8.73;;;;;;;24.94;15.50;97475.22;5112587;28;20543;-82
2021/01/01 07:38:46;;;;;;;21.40;8.73;;;;;;;25.19;15.28;97463.88;5114542;28;20501;-82
2021/01/01 07:41:14;;;;;;;18.92;7.07;;;;;;;24.99;15.58;97471.84;5104195;28;20051;-81
2021/01/01 07:43:40;;;;;;;23.88;10.00;;;;;;;23.88;16.55;97472.25;5101655;28;20387;-82
2021/01/01 07:46:08;;;;;;;19.65;9.40;;;;;;;24.52;15.82;97473.84;5104448;28;20509;-81
2021/01/01 07:48:35;;;;;;;15.35;7.30;;;;;;;24.69;15.86;97475.28;5103461;28;20046;-82
2021/01/01 07:51:05;;;;;;;18.63;7.13;;;;;;;24.86;15.33;97476.69;5103368;28;20062;-82
2021/01/01 07:53:31;;;;;;;16.37;8.07;;;;;;;24.23;16.18;97485.19;5103548;28;20055;-81
2021/01/01 07:56:08;;;;;;;25.00;10.73;;;;;;;22.89;17.17;97477.91;5105027;28;20293;-82
2021/01/01 07:58:45;;;;;;;19.10;8.60;;;;;;;23.01;17.19;97476.38;5104402;28;20030;-81
2021/01/01 08:01:12;;;;;;;20.00;8.00;;;;;;;23.46;16.70;97484.72;5103001;28;20032;-82
2021/01/01 08:03:40;;;;;;;15.63;6.78;;;;;;;24.23;16.35;97487.22;5105132;28;20073;-81
2021/01/01 08:06:10;;;;;;;19.67;8.98;;;;;;;24.40;15.94;97483.84;5102464;28;20031;-81
2021/01/01 08:08:36;;;;;;;20.00;9.15;;;;;;;24.67;15.74;97477.72;5103204;28;20395;-82
2021/01/01 08:11:05;;;;;;;18.13;9.20;;;;;;;24.56;15.67;97485.72;5112671;28;20028;-82
2021/01/01 08:13:33;;;;;;;19.35;10.10;;;;;;;24.53;15.67;97484.59;5113581;28;20054;-82
2021/01/01 08:16:14;;;;;;;21.55;9.45;;;;;;;24.59;15.60;97482.81;5112276;28;20487;-82
2021/01/01 08:18:40;;;;;;;13.52;6.50;;;;;;;24.71;15.63;97489.63;5101403;28;20053;-81
2021/01/01 08:21:07;;;;;;;14.30;7.38;;;;;;;25.11;14.88;97495.50;5106377;28;20057;-81
2021/01/01 08:24:02;;;;;;;19.15;8.00;;;;;;;24.80;15.41;97486.94;5104928;28;20071;-81
2021/01/01 08:26:28;;;;;;;19.05;8.25;;;;;;;24.88;15.46;97493.13;5100831;28;20028;-81
2021/01/01 08:28:58;;;;;;;20.35;8.98;;;;;;;24.40;15.82;97495.06;5106291;28;20051;-82
2021/01/01 08:31:25;;;;;;;20.33;9.05;;;;;;;23.52;16.53;97503.38;5104767;28;20040;-82
2021/01/01 08:33:54;;;;;;;19.00;8.45;;;;;;;23.11;16.77;97492.88;5104374;28;20040;-82
2021/01/01 08:36:30;;;;;;;18.20;8.85;;;;;;;23.60;16.59;97496.31;5106187;28;20040;-82
2021/01/01 08:39:09;;;;;;;18.50;9.00;;;;;;;23.86;16.68;97495.13;5105285;28;20030;-82
2021/01/01 08:41:41;;;;;;;14.38;6.50;;;;;;;23.15;17.19;97498.41;5106056;28;20085;-82
2021/01/01 08:44:12;;;;;;;17.33;7.57;;;;;;;24.10;16.53;97500.47;5104925;28;20483;-82
2021/01/01 08:46:38;;;;;;;17.48;6.43;;;;;;;24.79;15.65;97502.22;5108890;28;20031;-82
2021/01/01 08:49:17;;;;;;;18.45;8.25;;;;;;;24.98;15.80;97498.34;5108565;28;20020;-82
2021/01/01 08:51:47;;;;;;;23.20;9.55;;;;;;;23.19;17.44;97493.47;5106638;28;20042;-82
2021/01/01 08:54:26;;;;;;;17.47;6.60;;;;;;;23.59;17.35;97493.97;5104193;28;20076;-81
2021/01/01 08:57:01;;;;;;;20.67;9.52;;;;;;;22.85;17.75;97488.38;5103220;28;20028;-80
2021/01/01 08:59:28;;;;;;;16.25;7.38;;;;;;;23.65;16.91;97484.56;5100323;28;20187;-81
2021/01/01 09:01:55;;;;;;;19.58;7.85;;;;;;;23.69;17.04;97490.03;5103382;28;20030;-81
2021/01/01 09:04:25;;;;;;;17.33;8.65;;;;;;;23.50;16.92;97491.03;5103162;28;20063;-82
2021/01/01 09:07:04;;;;;;;31.33;14.10;;;;;;;20.84;20.06;97501.16;5108137;28;20035;-82
2021/01/01 09:09:32;;;;;;;25.77;11.93;;;;;;;22.40;18.56;97496.72;5109631;28;20479;-81
2021/01/01 09:12:15;;;;;;;16.70;7.50;;;;;;;23.62;17.25;97490.28;5111513;28;20133;-82
2021/01/01 09:14:48;;;;;;;19.55;7.53;;;;;;;23.22;17.79;97498.97;5098740;28;20043;-83
2021/01/01 09:17:14;;;;;;;17.88;7.05;;;;;;;24.12;16.94;97495.19;5093394;28;20067;-80
2021/01/01 09:19:40;;;;;;;25.48;10.27;;;;;;;24.44;16.67;97486.53;5102531;28;20144;-81
2021/01/01 09:22:34;;;;;;;18.80;8.60;;;;;;;24.99;16.35;97488.69;5107003;28;20020;-81
2021/01/01 09:25:23;;;;;;;21.95;7.80;;;;;;;24.91;16.46;97498.59;5101771;28;20551;-81
2021/01/01 09:27:51;;;;;;;21.65;9.18;;;;;;;24.30;16.69;97501.00;5104167;28;20071;-81
2021/01/01 09:30:20;;;;;;;31.40;12.50;;;;;;;23.43;17.29;97503.25;5106446;28;20057;-80
2021/01/01 09:32:48;;;;;;;25.35;11.27;;;;;;;23.90;17.41;97500.63;5109664;28;20031;-80
2021/01/01 09:35:16;;;;;;;25.88;11.52;;;;;;;22.24;18.87;97499.47;5106325;28;20036;-79
2021/01/01 09:37:49;;;;;;;22.67;9.73;;;;;;;22.62;18.85;97494.19;5108119;28;20046;-80
2021/01/01 09:40:17;;;;;;;32.55;14.02;;;;;;;21.64;19.33;97508.41;5107902;28;20373;-81
2021/01/01 09:42:43;;;;;;;29.10;11.45;;;;;;;22.18;18.93;97503.22;5107975;28;20032;-82
2021/01/01 09:45:11;;;;;;;32.67;15.50;;;;;;;21.44;19.80;97500.03;5088102;28;20032;-81
2021/01/01 09:47:37;;;;;;;29.95;12.10;;;;;;;20.71;20.73;97511.38;5105018;28;20036;-81
2021/01/01 09:50:05;;;;;;;34.47;15.25;;;;;;;20.45;21.00;97509.41;5105766;28;20046;-81
2021/01/01 09:52:31;;;;;;;35.13;15.32;;;;;;;19.35;22.57;97506.56;5113068;28;20036;-79
2021/01/01 09:54:57;;;;;;;20.58;9.77;;;;;;;21.30;20.52;97511.50;5109230;28;20048;-80
2021/01/01 09:57:23;;;;;;;32.83;15.07;;;;;;;21.20;20.20;97513.28;5110335;28;20040;-80
2021/01/01 09:59:49;;;;;;;33.40;14.18;;;;;;;19.55;22.20;97511.13;5106138;28;20028;-80
2021/01/01 10:02:15;;;;;;;36.90;15.23;;;;;;;18.60;23.38;97509.31;5105727;28;20118;-79
2021/01/01 10:04:41;;;;;;;24.83;10.55;;;;;;;20.76;21.50;97505.31;5103281;28;20032;-80
2021/01/01 10:07:07;;;;;;;22.30;9.07;;;;;;;22.56;19.49;97502.31;5102946;28;20032;-79
2021/01/01 10:09:34;;;;;;;20.90;9.18;;;;;;;24.00;17.39;97496.72;5106131;28;20461;-80
2021/01/01 10:12:05;;;;;;;23.58;9.82;;;;;;;24.62;16.71;97490.31;5108851;28;20054;-79
2021/01/01 10:14:32;;;;;;;21.45;8.55;;;;;;;24.63;16.85;97502.34;5101551;28;20035;-80
2021/01/01 10:16:58;;;;;;;22.92;9.27;;;;;;;24.71;16.90;97493.22;5103827;28;20039;-80
2021/01/01 10:19:25;;;;;;;22.17;9.50;;;;;;;25.05;16.67;97489.69;5111230;28;20012;-80
2021/01/01 10:21:51;;;;;;;18.75;8.68;;;;;;;25.49;15.96;97486.91;5109837;28;20100;-81
2021/01/01 10:24:18;;;;;;;21.33;9.65;;;;;;;25.54;15.61;97487.13;5108207;28;20067;-82
2021/01/01 10:26:48;;;;;;;18.02;8.07;;;;;;;25.70;15.88;97486.13;5108411;28;20031;-81
2021/01/01 10:29:15;;;;;;;19.77;8.57;;;;;;;25.70;15.75;97483.31;5100400;28;20036;-80
2021/01/01 10:31:41;;;;;;;19.00;8.73;;;;;;;25.88;15.95;97480.63;5099579;28;20031;-81
2021/01/01 10:34:07;;;;;;;24.92;10.43;;;;;;;26.17;15.93;97475.47;5105643;28;20028;-80
2021/01/01 10:36:33;;;;;;;22.30;9.60;;;;;;;26.34;15.86;97476.78;5104397;28;20129;-80
2021/01/01 10:39:00;;;;;;;23.35;10.52;;;;;;;26.14;15.86;97476.38;5111783;28;20129;-81
2021/01/01 10:41:26;;;;;;;25.15;12.88;;;;;;;25.42;16.10;97477.47;5081251;28;20043;-81
2021/01/01 10:43:52;;;;;;;18.92;10.10;;;;;;;25.10;16.36;97469.44;5113201;28;20039;-81
2021/01/01 10:46:18;;;;;;;24.25;10.57;;;;;;;24.27;17.20;97465.47;5114137;28;20028;-81
2021/01/01 10:48:44;;;;;;;35.03;16.70;;;;;;;21.91;19.27;97456.72;5110304;28;20043;-81
2021/01/01 10:51:10;;;;;;;24.25;10.38;;;;;;;21.61;20.17;97475.75;5110553;28;20035;-81
2021/01/01 10:53:38;;;;;;;21.67;8.25;;;;;;;22.95;18.62;97453.72;5083408;28;20032;-81
2021/01/01 10:56:04;;;;;;;22.08;9.90;;;;;;;24.17;17.61;97452.56;5109274;28;20084;-81
2021/01/01 10:58:30;;;;;;;26.35;11.38;;;;;;;23.50;18.29;97446.19;5089972;28;20118;-81
2021/01/01 11:00:56;;;;;;;20.33;8.75;;;;;;;24.13;17.75;97447.06;5114223;28;20027;-82
2021/01/01 11:03:23;;;;;;;20.48;10.38;;;;;;;24.70;16.61;97443.94;5114010;28;20151;-83
2021/01/01 11:05:49;;;;;;;19.65;8.65;;;;;;;25.51;16.12;97456.34;5113982;28;20360;-81
2021/01/01 11:08:15;;;;;;;39.65;17.48;;;;;;;23.94;17.25;97442.44;5111202;28;20074;-82
2021/01/01 11:10:42;;;;;;;29.75;15.50;;;;;;;22.27;19.49;97442.69;5109629;28;20100;-81
2021/01/01 11:13:08;;;;;;;22.90;9.65;;;;;;;23.04;19.24;97430.69;5104592;28;20048;-82
2021/01/01 12:20:17;;;;;;;26.02;11.90;;;;;;;26.78;15.73;97457.69;5090543;28;20511;-82
2021/01/01 12:25:22;;;;;;;27.48;12.55;;;;;;;25.80;16.71;97448.38;5113906;28;20047;-82
2021/01/01 12:27:50;;;;;;;21.65;10.80;;;;;;;26.21;16.34;97452.81;5108223;28;20031;-82
2021/01/01 12:30:17;;;;;;;23.88;11.40;;;;;;;26.43;16.04;97454.28;5080187;28;20036;-82
2021/01/01 12:32:45;;;;;;;24.15;10.55;;;;;;;26.94;15.65;97448.13;5107603;28;20494;-82
2021/01/01 12:35:12;;;;;;;18.52;7.78;;;;;;;26.91;15.69;97449.84;5105514;28;20169;-82
2021/01/01 12:37:39;;;;;;;26.67;11.52;;;;;;;27.10;15.38;97453.47;5105107;28;20039;-82